createdAt,value
2019-03-21T00:01:56.509Z,52.96
2019-03-21T00:04:13.315Z,52.92
2019-03-21T00:06:20.011Z,52.98
2019-03-21T00:08:26.877Z,53.17
2019-03-21T00:10:37.927Z,53.12
2019-03-21T00:12:44.630Z,53.04
2019-03-21T00:14:58.930Z,53.03
2019-03-21T00:17:13.355Z,53.22
2019-03-21T00:19:20.110Z,53.12
2019-03-21T00:21:26.843Z,53.40
2019-03-21T00:23:33.684Z,53.31
2019-03-21T00:25:40.630Z,53.24
2019-03-21T00:27:47.301Z,53.19
2019-03-21T00:29:55.255Z,53.29
2019-03-21T00:32:02.221Z,53.46
2019-03-21T00:34:08.889Z,53.51
2019-03-21T00:36:15.659Z,53.20
2019-03-21T00:38:22.442Z,53.18
2019-03-21T00:40:39.165Z,53.14
2019-03-21T00:42:45.999Z,53.18
2019-03-21T00:44:52.689Z,53.10
2019-03-21T00:46:59.360Z,53.07
2019-03-21T00:49:06.019Z,53.07
2019-03-21T00:51:12.712Z,53.13
2019-03-21T00:53:19.381Z,53.21
2019-03-21T00:55:30.999Z,53.22
2019-03-21T00:57:37.698Z,53.17
2019-03-21T00:59:44.430Z,53.28
2019-03-21T01:01:51.177Z,53.22
2019-03-21T01:03:57.868Z,53.36
2019-03-21T01:06:04.933Z,53.26
2019-03-21T01:08:11.604Z,53.32
2019-03-21T01:10:28.648Z,53.29
2019-03-21T01:12:35.315Z,53.32
2019-03-21T01:14:41.982Z,53.28
2019-03-21T01:16:48.682Z,53.29
2019-03-21T01:18:55.341Z,53.26
2019-03-21T01:21:02.017Z,53.18
2019-03-21T01:23:08.715Z,53.19
2019-03-21T01:25:25.525Z,53.29
2019-03-21T01:27:32.275Z,53.30
2019-03-21T01:29:38.974Z,53.44
2019-03-21T01:31:45.715Z,53.44
2019-03-21T01:33:52.487Z,53.49
2019-03-21T01:35:59.207Z,53.43
2019-03-21T01:38:05.873Z,53.68
2019-03-21T01:40:34.722Z,53.76
2019-03-21T01:42:41.412Z,53.75
2019-03-21T01:44:48.079Z,53.90
2019-03-21T01:46:54.758Z,53.96
2019-03-21T01:49:01.451Z,54.02
2019-03-21T01:51:08.123Z,53.96
2019-03-21T01:53:14.787Z,54.01
2019-03-21T01:55:21.486Z,54.06
2019-03-21T01:57:28.231Z,54.01
2019-03-21T01:59:34.897Z,54.01
2019-03-21T02:01:41.792Z,54.09
2019-03-21T02:03:48.535Z,54.11
2019-03-21T02:05:55.203Z,54.29
2019-03-21T02:08:01.891Z,54.25
2019-03-21T02:10:16.401Z,54.25
2019-03-21T02:12:23.176Z,54.44
2019-03-21T02:14:29.873Z,54.37
2019-03-21T02:16:36.540Z,54.32
2019-03-21T02:18:43.278Z,54.46
2019-03-21T02:20:50.192Z,54.56
2019-03-21T02:22:56.858Z,54.54
2019-03-21T02:25:07.067Z,54.62
2019-03-21T02:27:12.882Z,54.74
2019-03-21T02:29:19.411Z,54.76
2019-03-21T02:31:26.074Z,54.79
2019-03-21T02:33:36.203Z,54.73
2019-03-21T02:35:43.005Z,54.87
2019-03-21T02:37:49.670Z,54.91
2019-03-21T02:39:59.906Z,54.80
2019-03-21T02:42:04.820Z,54.92
2019-03-21T02:44:11.541Z,54.87
2019-03-21T02:46:18.440Z,54.83
2019-03-21T02:48:25.186Z,54.91
2019-03-21T02:50:45.928Z,54.94
2019-03-21T02:52:52.619Z,54.97
2019-03-21T02:54:59.356Z,55.03
2019-03-21T02:57:06.035Z,55.08
2019-03-21T02:59:12.734Z,55.12
2019-03-21T03:01:19.612Z,55.16
2019-03-21T03:03:26.282Z,55.05
2019-03-21T03:05:35.188Z,55.32
2019-03-21T03:07:41.866Z,55.36
2019-03-21T03:09:48.531Z,55.51
2019-03-21T03:11:55.216Z,55.55
2019-03-21T03:14:04.478Z,55.70
2019-03-21T03:16:10.325Z,55.69
2019-03-21T03:18:21.273Z,55.69
2019-03-21T03:20:27.919Z,55.85
2019-03-21T03:22:34.655Z,56.08
2019-03-21T03:24:41.346Z,56.06
2019-03-21T03:26:48.081Z,55.99
2019-03-21T03:28:54.749Z,56.15
2019-03-21T03:31:01.718Z,56.11
2019-03-21T03:33:08.632Z,56.35
2019-03-21T03:35:15.584Z,56.31
2019-03-21T03:37:22.355Z,56.22
2019-03-21T03:39:29.020Z,56.23
2019-03-21T03:41:35.982Z,56.62
2019-03-21T03:43:42.874Z,56.61
2019-03-21T03:45:49.521Z,56.66
2019-03-21T03:47:56.232Z,56.81
2019-03-21T03:50:02.943Z,56.70
2019-03-21T03:52:09.593Z,56.82
2019-03-21T03:54:16.330Z,56.85
2019-03-21T03:56:23.024Z,56.94
2019-03-21T03:58:43.119Z,57.15
2019-03-21T04:00:49.783Z,57.42
2019-03-21T04:02:57.673Z,57.49
2019-03-21T04:05:05.800Z,57.33
2019-03-21T04:07:12.460Z,57.38
2019-03-21T04:09:20.140Z,57.56
2019-03-21T04:11:27.006Z,57.55
2019-03-21T04:13:34.795Z,57.72
2019-03-21T04:15:52.314Z,57.61
2019-03-21T04:17:49.840Z,57.71
2019-03-21T04:19:56.617Z,57.82
2019-03-21T04:22:03.375Z,57.83
2019-03-21T04:24:11.141Z,57.74
2019-03-21T04:26:34.109Z,57.67
2019-03-21T04:28:41.797Z,57.65
2019-03-21T04:30:48.962Z,57.80
2019-03-21T04:32:56.622Z,57.84
2019-03-21T04:35:03.313Z,57.88
2019-03-21T04:37:10.727Z,58.05
2019-03-21T04:39:17.397Z,57.88
2019-03-21T04:41:24.096Z,58.02
2019-03-21T04:43:31.042Z,58.34
2019-03-21T04:45:37.704Z,58.17
2019-03-21T04:47:44.419Z,58.30
2019-03-21T04:49:51.163Z,58.35
2019-03-21T04:51:58.883Z,58.51
2019-03-21T04:54:06.037Z,58.50
2019-03-21T04:56:12.704Z,58.66
2019-03-21T04:58:19.452Z,58.71
2019-03-21T05:00:35.962Z,58.70
2019-03-21T05:02:42.704Z,58.73
2019-03-21T05:04:49.371Z,58.94
2019-03-21T05:06:56.062Z,58.99
2019-03-21T05:09:03.115Z,59.30
2019-03-21T05:11:09.794Z,59.69
2019-03-21T05:13:16.560Z,59.44
2019-03-21T05:15:36.341Z,59.55
2019-03-21T05:17:43.178Z,59.73
2019-03-21T05:19:49.945Z,59.64
2019-03-21T05:21:56.619Z,59.78
2019-03-21T05:24:03.402Z,59.99
2019-03-21T05:26:10.099Z,59.99
2019-03-21T05:28:17.777Z,60.06
2019-03-21T05:30:40.472Z,59.92
2019-03-21T05:32:47.167Z,60.00
2019-03-21T05:34:53.828Z,60.20
2019-03-21T05:37:00.498Z,60.01
2019-03-21T05:39:10.802Z,60.06
2019-03-21T05:41:17.453Z,60.09
2019-03-21T05:44:03.095Z,60.03
2019-03-21T05:46:09.910Z,59.95
2019-03-21T05:48:16.665Z,59.64
2019-03-21T05:50:23.339Z,59.69
2019-03-21T05:52:30.117Z,59.38
2019-03-21T05:54:36.776Z,59.28
2019-03-21T05:56:43.512Z,59.22
2019-03-21T05:58:50.242Z,59.13
2019-03-21T06:01:00.946Z,59.06
2019-03-21T06:03:23.814Z,58.93
2019-03-21T06:05:32.112Z,58.87
2019-03-21T06:07:49.039Z,58.77
2019-03-21T06:09:55.786Z,58.47
2019-03-21T06:12:05.570Z,58.59
2019-03-21T06:14:12.439Z,58.53
2019-03-21T06:16:19.176Z,58.34
2019-03-21T06:18:54.499Z,58.30
2019-03-21T06:21:21.093Z,58.42
2019-03-21T06:23:46.832Z,58.23
2019-03-21T06:26:13.089Z,58.20
2019-03-21T06:28:19.764Z,58.27
2019-03-21T06:30:26.423Z,58.34
2019-03-21T06:32:33.128Z,58.15
2019-03-21T06:34:39.799Z,57.83
2019-03-21T06:36:46.466Z,57.78
2019-03-21T06:38:53.160Z,57.66
2019-03-21T06:40:59.823Z,57.68
2019-03-21T06:43:06.493Z,57.58
2019-03-21T06:45:13.183Z,57.37
2019-03-21T06:47:19.928Z,57.22
2019-03-21T06:49:26.670Z,57.46
2019-03-21T06:51:33.372Z,57.27
2019-03-21T06:53:41.128Z,57.39
2019-03-21T06:55:47.807Z,57.14
2019-03-21T06:57:54.506Z,57.14
2019-03-21T07:00:01.180Z,57.25
2019-03-21T07:02:09.212Z,57.37
2019-03-21T07:04:15.902Z,57.36
2019-03-21T07:06:22.605Z,57.43
2019-03-21T07:08:29.274Z,57.21
2019-03-21T07:10:35.963Z,57.10
2019-03-21T07:12:43.636Z,57.23
2019-03-21T07:14:50.375Z,57.41
2019-03-21T07:17:00.621Z,57.60
2019-03-21T07:19:05.500Z,57.41
2019-03-21T07:21:12.167Z,57.44
2019-03-21T07:23:18.935Z,57.97
2019-03-21T07:25:25.677Z,58.02
2019-03-21T07:27:32.348Z,57.83
2019-03-21T07:29:39.061Z,57.45
2019-03-21T07:31:45.805Z,57.30
2019-03-21T07:33:52.485Z,57.17
2019-03-21T07:35:59.468Z,56.92
2019-03-21T07:38:06.147Z,57.02
2019-03-21T07:40:14.414Z,56.81
2019-03-21T07:42:22.267Z,56.78
2019-03-21T07:44:28.937Z,56.65
2019-03-21T07:46:35.708Z,56.55
2019-03-21T07:48:42.589Z,56.47
2019-03-21T07:50:49.271Z,56.53
2019-03-21T07:52:55.944Z,56.74
2019-03-21T07:55:02.667Z,56.70
2019-03-21T07:57:09.490Z,56.39
2019-03-21T07:59:16.144Z,56.59
2019-03-21T08:01:22.947Z,58.01
2019-03-21T08:03:29.632Z,57.49
2019-03-21T08:05:40.641Z,57.77
2019-03-21T08:07:44.701Z,57.82
2019-03-21T08:09:51.373Z,58.15
2019-03-21T08:11:58.049Z,58.53
2019-03-21T08:14:04.842Z,58.60
2019-03-21T08:16:11.521Z,58.74
2019-03-21T08:18:18.293Z,58.37
2019-03-21T08:20:25.003Z,57.98
2019-03-21T08:22:31.682Z,58.45
2019-03-21T08:24:38.358Z,58.76
2019-03-21T08:26:45.128Z,58.19
2019-03-21T08:28:51.800Z,57.06
2019-03-21T08:31:08.746Z,56.59
2019-03-21T08:33:15.519Z,57.28
2019-03-21T08:35:22.282Z,57.07
2019-03-21T08:37:29.034Z,56.36
2019-03-21T08:39:35.829Z,55.76
2019-03-21T08:41:42.527Z,55.00
2019-03-21T08:43:50.088Z,54.47
2019-03-21T08:45:56.792Z,54.25
2019-03-21T08:48:04.868Z,54.09
2019-03-21T08:50:13.508Z,53.51
2019-03-21T08:52:20.217Z,53.58
2019-03-21T08:54:26.886Z,53.66
2019-03-21T08:56:33.560Z,54.30
2019-03-21T08:58:40.335Z,54.96
2019-03-21T09:00:47.008Z,55.28
2019-03-21T09:02:53.681Z,55.83
2019-03-21T09:05:00.399Z,56.18
2019-03-21T09:07:07.144Z,56.11
2019-03-21T09:09:13.890Z,56.46
2019-03-21T09:11:20.587Z,56.04
2019-03-21T09:13:27.253Z,55.34
2019-03-21T09:15:33.951Z,54.49
2019-03-21T09:17:40.667Z,54.30
2019-03-21T09:19:47.364Z,53.91
2019-03-21T09:21:55.037Z,53.53
2019-03-21T09:24:01.728Z,54.46
2019-03-21T09:26:09.931Z,54.54
2019-03-21T09:28:16.678Z,55.25
2019-03-21T09:30:23.462Z,55.57
2019-03-21T09:32:30.132Z,55.41
2019-03-21T09:34:36.815Z,56.15
2019-03-21T09:36:43.583Z,56.38
2019-03-21T09:38:50.262Z,56.49
2019-03-21T09:40:56.929Z,55.96
2019-03-21T09:43:03.697Z,55.06
2019-03-21T09:45:10.993Z,54.11
2019-03-21T09:47:17.732Z,53.46
2019-03-21T09:49:24.434Z,52.34
2019-03-21T09:51:31.324Z,52.21
2019-03-21T09:53:38.049Z,51.88
2019-03-21T09:55:44.739Z,51.55
2019-03-21T09:57:51.482Z,50.75
2019-03-21T09:59:58.159Z,50.73
2019-03-21T10:02:04.977Z,50.87
2019-03-21T10:04:11.653Z,50.85
2019-03-21T10:06:18.326Z,50.69
2019-03-21T10:08:25.199Z,49.67
2019-03-21T10:10:33.869Z,49.75
2019-03-21T10:12:40.542Z,50.32
2019-03-21T10:14:47.314Z,50.58
2019-03-21T10:16:54.061Z,51.57
2019-03-21T10:19:00.730Z,51.86
2019-03-21T10:21:07.438Z,51.79
2019-03-21T10:23:14.109Z,52.27
2019-03-21T10:25:20.778Z,52.32
2019-03-21T10:27:27.463Z,52.41
2019-03-21T10:29:34.139Z,52.07
2019-03-21T10:31:40.803Z,51.07
2019-03-21T10:33:47.616Z,50.16
2019-03-21T10:35:54.348Z,49.05
2019-03-21T10:38:01.017Z,48.42
2019-03-21T10:40:08.120Z,48.88
2019-03-21T10:42:14.787Z,48.63
2019-03-21T10:44:21.462Z,49.25
2019-03-21T10:46:28.165Z,49.33
2019-03-21T10:48:34.838Z,49.58
2019-03-21T10:50:42.814Z,49.99
2019-03-21T10:52:49.513Z,50.04
2019-03-21T10:54:56.248Z,49.96
2019-03-21T10:57:02.938Z,50.38
2019-03-21T10:59:09.698Z,49.75
2019-03-21T11:01:16.371Z,49.25
2019-03-21T11:03:23.044Z,48.62
2019-03-21T11:05:29.737Z,48.21
2019-03-21T11:07:36.411Z,47.55
2019-03-21T11:09:43.157Z,46.81
2019-03-21T11:11:49.883Z,46.16
2019-03-21T11:13:56.556Z,45.68
2019-03-21T11:16:03.295Z,45.68
2019-03-21T11:18:10.261Z,44.88
2019-03-21T11:20:29.493Z,44.68
2019-03-21T11:22:36.158Z,44.56
2019-03-21T11:24:42.999Z,44.40
2019-03-21T11:26:49.694Z,44.60
2019-03-21T11:28:56.423Z,44.81
2019-03-21T11:31:03.165Z,44.83
2019-03-21T11:33:10.514Z,45.66
2019-03-21T11:35:17.177Z,45.26
2019-03-21T11:37:23.902Z,44.38
2019-03-21T11:39:30.866Z,44.38
2019-03-21T11:41:37.604Z,44.75
2019-03-21T11:43:44.315Z,43.68
2019-03-21T11:45:51.077Z,42.63
2019-03-21T11:47:59.807Z,42.66
2019-03-21T11:50:08.912Z,42.21
2019-03-21T11:52:18.387Z,42.06
2019-03-21T11:54:23.933Z,41.20
2019-03-21T11:56:30.638Z,41.32
2019-03-21T11:58:37.477Z,40.72
2019-03-21T12:00:45.375Z,41.01
2019-03-21T12:02:53.403Z,41.29
2019-03-21T12:05:00.065Z,41.55
2019-03-21T12:07:06.746Z,41.95
2019-03-21T12:09:13.534Z,42.46
2019-03-21T12:11:21.414Z,42.27
2019-03-21T12:13:28.228Z,42.12
2019-03-21T12:15:34.909Z,40.69
2019-03-21T12:17:41.581Z,39.25
2019-03-21T12:19:48.277Z,39.11
2019-03-21T12:21:55.040Z,38.45
2019-03-21T12:24:01.779Z,38.79
2019-03-21T12:26:08.442Z,38.85
2019-03-21T12:28:15.142Z,39.25
2019-03-21T12:30:36.793Z,40.34
2019-03-21T12:32:43.479Z,40.74
2019-03-21T12:34:50.224Z,40.48
2019-03-21T12:36:56.889Z,40.28
2019-03-21T12:39:03.711Z,40.11
2019-03-21T12:41:10.409Z,39.97
2019-03-21T12:43:17.085Z,40.20
2019-03-21T12:45:23.822Z,40.44
2019-03-21T12:47:31.738Z,40.21
2019-03-21T12:49:39.812Z,40.47
2019-03-21T12:51:46.549Z,40.54
2019-03-21T12:53:53.266Z,40.43
2019-03-21T12:55:59.941Z,40.61
2019-03-21T12:58:06.609Z,40.89
2019-03-21T13:00:15.465Z,39.88
2019-03-21T13:02:32.028Z,40.30
2019-03-21T13:04:30.573Z,40.50
2019-03-21T13:06:37.362Z,40.13
2019-03-21T13:08:44.206Z,40.21
2019-03-21T13:10:50.887Z,40.76
2019-03-21T13:12:57.652Z,41.16
2019-03-21T13:15:08.007Z,41.06
2019-03-21T13:17:14.675Z,41.86
2019-03-21T13:19:21.387Z,41.88
2019-03-21T13:21:28.054Z,41.97
2019-03-21T13:23:34.729Z,41.33
2019-03-21T13:25:41.438Z,40.99
2019-03-21T13:27:48.174Z,40.10
2019-03-21T13:29:54.863Z,39.32
2019-03-21T13:32:01.567Z,39.17
2019-03-21T13:34:08.327Z,39.33
2019-03-21T13:36:15.164Z,39.64
2019-03-21T13:38:21.873Z,40.01
2019-03-21T13:40:28.671Z,39.63
2019-03-21T13:42:35.333Z,40.37
2019-03-21T13:44:42.033Z,40.11
2019-03-21T13:46:48.782Z,40.41
2019-03-21T13:48:55.436Z,40.01
2019-03-21T13:51:02.211Z,39.79
2019-03-21T13:53:18.109Z,38.93
2019-03-21T13:55:17.455Z,38.94
2019-03-21T13:57:24.213Z,38.64
2019-03-21T13:59:30.887Z,38.83
2019-03-21T14:01:37.625Z,39.44
2019-03-21T14:03:44.392Z,39.97
2019-03-21T14:05:51.125Z,40.47
2019-03-21T14:07:57.869Z,40.99
2019-03-21T14:10:06.883Z,41.25
2019-03-21T14:12:12.841Z,41.09
2019-03-21T14:14:19.648Z,41.84
2019-03-21T14:16:26.347Z,41.99
2019-03-21T14:18:33.011Z,42.81
2019-03-21T14:20:39.691Z,43.55
2019-03-21T14:22:46.384Z,44.01
2019-03-21T14:24:53.062Z,44.75
2019-03-21T14:26:59.754Z,45.21
2019-03-21T14:29:12.689Z,44.70
2019-03-21T14:31:14.828Z,44.16
2019-03-21T14:33:21.510Z,43.76
2019-03-21T14:35:28.336Z,42.95
2019-03-21T14:37:35.005Z,42.75
2019-03-21T14:39:41.683Z,43.01
2019-03-21T14:41:48.391Z,42.77
2019-03-21T14:43:55.140Z,43.02
2019-03-21T14:46:01.881Z,43.47
2019-03-21T14:48:08.667Z,44.05
2019-03-21T14:50:19.555Z,44.28
2019-03-21T14:52:26.253Z,44.53
2019-03-21T14:54:32.938Z,44.85
2019-03-21T14:56:39.614Z,45.17
2019-03-21T14:58:46.296Z,45.15
2019-03-21T15:00:53.163Z,45.33
2019-03-21T15:02:59.910Z,45.55
2019-03-21T15:05:09.379Z,45.43
2019-03-21T15:07:18.606Z,45.12
2019-03-21T15:09:24.450Z,45.11
2019-03-21T15:11:31.157Z,45.29
2019-03-21T15:13:37.961Z,44.91
2019-03-21T15:15:44.752Z,44.97
2019-03-21T15:17:51.421Z,45.13
2019-03-21T15:19:58.113Z,45.02
2019-03-21T15:22:04.785Z,44.68
2019-03-21T15:24:11.457Z,44.67
2019-03-21T15:26:18.163Z,44.71
2019-03-21T15:28:24.986Z,44.88
2019-03-21T15:30:31.662Z,44.85
2019-03-21T15:32:38.454Z,45.07
2019-03-21T15:34:45.288Z,44.95
2019-03-21T15:36:51.989Z,45.16
2019-03-21T15:38:58.753Z,45.17
2019-03-21T15:41:05.628Z,45.59
2019-03-21T15:43:12.378Z,45.51
2019-03-21T15:45:23.863Z,45.65
2019-03-21T15:47:27.804Z,45.73
2019-03-21T15:49:34.470Z,46.20
2019-03-21T15:51:41.323Z,46.48
2019-03-21T15:53:54.932Z,46.63
2019-03-21T15:55:57.311Z,46.94
2019-03-21T15:58:04.176Z,47.17
2019-03-21T16:00:13.684Z,47.42
2019-03-21T16:02:20.360Z,47.45
2019-03-21T16:04:27.128Z,47.47
2019-03-21T16:06:33.860Z,47.50
2019-03-21T16:08:40.603Z,48.22
2019-03-21T16:10:47.303Z,47.61
2019-03-21T16:12:54.043Z,47.49
2019-03-21T16:15:00.722Z,47.65
2019-03-21T16:17:07.530Z,47.80
2019-03-21T16:19:14.265Z,48.04
2019-03-21T16:21:21.090Z,48.10
2019-03-21T16:23:27.819Z,48.15
2019-03-21T16:25:34.759Z,48.38
2019-03-21T16:27:41.431Z,48.61
2019-03-21T16:29:48.197Z,48.59
2019-03-21T16:31:54.947Z,48.99
2019-03-21T16:34:03.083Z,49.24
2019-03-21T16:36:09.775Z,49.42
2019-03-21T16:38:17.544Z,49.59
2019-03-21T16:40:24.282Z,49.84
2019-03-21T16:42:30.989Z,49.95
2019-03-21T16:44:37.667Z,49.98
2019-03-21T16:46:44.317Z,50.27
2019-03-21T16:48:51.023Z,50.29
2019-03-21T16:50:57.815Z,50.51
2019-03-21T16:53:04.988Z,50.59
2019-03-21T16:55:16.186Z,50.73
2019-03-21T16:57:24.323Z,50.75
2019-03-21T16:59:32.636Z,51.17
2019-03-21T17:01:39.349Z,51.01
2019-03-21T17:03:46.020Z,51.09
2019-03-21T17:05:53.726Z,51.17
2019-03-21T17:08:10.354Z,51.28
2019-03-21T17:10:12.148Z,51.29
2019-03-21T17:12:18.944Z,51.68
2019-03-21T17:14:25.655Z,51.76
2019-03-21T17:16:32.377Z,51.99
2019-03-21T17:18:39.055Z,51.92
2019-03-21T17:20:45.803Z,52.12
2019-03-21T17:22:52.545Z,52.02
2019-03-21T17:24:59.262Z,52.15
2019-03-21T17:27:06.027Z,52.37
2019-03-21T17:29:12.772Z,52.34
2019-03-21T17:31:19.514Z,52.35
2019-03-21T17:33:27.490Z,52.40
2019-03-21T17:35:36.038Z,52.49
2019-03-21T17:37:42.712Z,52.47
2019-03-21T17:39:49.427Z,52.59
2019-03-21T17:41:56.220Z,52.60
2019-03-21T17:44:05.046Z,52.57
2019-03-21T17:46:11.832Z,52.89
2019-03-21T17:48:18.688Z,53.10
2019-03-21T17:50:25.432Z,53.29
2019-03-21T17:52:33.555Z,53.39
2019-03-21T17:54:41.746Z,53.66
2019-03-21T17:56:48.876Z,54.12
2019-03-21T17:58:55.726Z,54.21
2019-03-21T18:01:02.484Z,54.58
2019-03-21T18:03:09.472Z,54.73
2019-03-21T18:05:16.572Z,54.99
2019-03-21T18:07:23.314Z,54.96
2019-03-21T18:09:29.989Z,55.38
2019-03-21T18:11:37.052Z,55.58
2019-03-21T18:13:43.733Z,55.88
2019-03-21T18:15:50.473Z,56.03
2019-03-21T18:17:57.650Z,56.07
2019-03-21T18:20:05.892Z,56.30
2019-03-21T18:22:12.566Z,56.31
2019-03-21T18:24:19.274Z,56.57
2019-03-21T18:26:26.015Z,56.71
2019-03-21T18:28:32.762Z,56.84
2019-03-21T18:30:39.480Z,57.30
2019-03-21T18:32:48.765Z,56.92
2019-03-21T18:34:55.445Z,57.67
2019-03-21T18:37:02.219Z,57.11
2019-03-21T18:39:09.188Z,57.31
2019-03-21T18:41:17.376Z,57.22
2019-03-21T18:43:24.160Z,57.36
2019-03-21T18:45:32.235Z,57.32
2019-03-21T18:47:38.904Z,57.45
2019-03-21T18:49:45.668Z,57.54
2019-03-21T18:51:52.433Z,57.72
2019-03-21T18:53:59.123Z,57.84
2019-03-21T18:56:05.926Z,57.97
2019-03-21T18:58:12.672Z,58.08
2019-03-21T19:00:22.810Z,58.36
2019-03-21T19:02:29.501Z,58.60
2019-03-21T19:04:36.301Z,58.33
2019-03-21T19:06:46.387Z,58.73
2019-03-21T19:08:53.244Z,58.61
2019-03-21T19:10:59.918Z,58.71
2019-03-21T19:13:06.595Z,58.85
2019-03-21T19:15:17.010Z,58.93
2019-03-21T19:17:24.855Z,59.15
2019-03-21T19:19:31.602Z,59.20
2019-03-21T19:21:38.375Z,59.38
2019-03-21T19:23:46.622Z,59.72
2019-03-21T19:25:53.369Z,59.71
2019-03-21T19:28:01.670Z,59.86
2019-03-21T19:30:15.514Z,60.12
2019-03-21T19:32:23.620Z,60.21
2019-03-21T19:34:30.434Z,60.29
2019-03-21T19:36:37.221Z,60.46
2019-03-21T19:38:45.732Z,60.44
2019-03-21T19:40:52.425Z,60.61
2019-03-21T19:42:59.175Z,60.53
2019-03-21T19:45:11.192Z,60.65
2019-03-21T19:47:25.737Z,60.52
2019-03-21T19:49:32.183Z,60.72
2019-03-21T19:51:38.932Z,60.29
2019-03-21T19:53:47.154Z,60.40
2019-03-21T19:55:55.359Z,60.17
2019-03-21T19:58:03.789Z,60.21
2019-03-21T20:00:15.208Z,60.13
2019-03-21T20:02:21.953Z,60.13
2019-03-21T20:04:33.045Z,60.33
2019-03-21T20:06:42.737Z,60.38
2019-03-21T20:08:56.670Z,60.34
2019-03-21T20:11:02.517Z,60.45
2019-03-21T20:13:12.123Z,60.40
2019-03-21T20:15:21.272Z,60.40
2019-03-21T20:17:28.524Z,60.43
2019-03-21T20:19:37.168Z,60.47
2019-03-21T20:21:48.319Z,60.74
2019-03-21T20:23:57.451Z,60.68
2019-03-21T20:26:04.337Z,60.94
2019-03-21T20:28:14.147Z,61.03
2019-03-21T20:30:22.496Z,61.05
2019-03-21T20:32:30.947Z,61.16
2019-03-21T20:34:37.688Z,61.20
2019-03-21T20:36:44.427Z,61.30
2019-03-21T20:38:51.417Z,61.41
2019-03-21T20:40:59.356Z,61.47
2019-03-21T20:43:09.031Z,61.51
2019-03-21T20:45:19.418Z,61.77
2019-03-21T20:47:32.130Z,61.82
2019-03-21T20:49:40.311Z,61.96
2019-03-21T20:51:47.395Z,62.10
2019-03-21T20:53:54.134Z,62.12
2019-03-21T20:56:04.675Z,62.26
2019-03-21T20:58:14.362Z,62.55
2019-03-21T21:00:25.414Z,62.56
2019-03-21T21:02:34.532Z,62.63
2019-03-21T21:04:41.306Z,62.82
2019-03-21T21:06:49.078Z,62.91
2019-03-21T21:08:57.398Z,63.09
2019-03-21T21:11:04.153Z,63.24
2019-03-21T21:13:10.895Z,63.54
2019-03-21T21:15:20.388Z,63.50
2019-03-21T21:17:28.595Z,63.78
2019-03-21T21:19:37.031Z,63.84
2019-03-21T21:21:43.779Z,63.80
2019-03-21T21:23:50.539Z,63.85
2019-03-21T21:26:05.514Z,64.17
2019-03-21T21:28:12.636Z,64.28
2019-03-21T21:30:23.589Z,64.34
2019-03-21T21:32:30.261Z,64.43
2019-03-21T21:34:36.936Z,64.53
2019-03-21T21:36:45.030Z,64.78
2019-03-21T21:38:51.693Z,65.13
2019-03-21T21:40:58.435Z,65.28
2019-03-21T21:43:06.248Z,65.25
2019-03-21T21:45:16.132Z,65.53
2019-03-21T21:47:22.908Z,65.84
2019-03-21T21:49:29.597Z,65.82
2019-03-21T21:51:36.271Z,65.99
2019-03-21T21:53:43.015Z,66.57
2019-03-21T21:55:49.784Z,66.69
2019-03-21T21:57:56.545Z,66.61
2019-03-21T22:00:04.875Z,66.44
2019-03-21T22:02:11.580Z,66.63
2019-03-21T22:04:18.264Z,66.75
2019-03-21T22:06:25.044Z,66.84
2019-03-21T22:08:31.818Z,66.89
2019-03-21T22:10:39.501Z,66.86
2019-03-21T22:12:47.517Z,66.95
2019-03-21T22:14:55.234Z,67.02
2019-03-21T22:17:01.974Z,67.10
2019-03-21T22:19:08.651Z,67.16
2019-03-21T22:21:15.424Z,67.27
2019-03-21T22:23:22.100Z,67.28
2019-03-21T22:25:28.848Z,67.39
2019-03-21T22:27:35.558Z,67.45
2019-03-21T22:29:42.306Z,67.40
2019-03-21T22:31:48.979Z,67.24
2019-03-21T22:33:55.802Z,67.49
2019-03-21T22:36:02.452Z,67.60
2019-03-21T22:38:09.204Z,67.69
2019-03-21T22:40:20.169Z,67.71
2019-03-21T22:42:26.924Z,67.77
2019-03-21T22:44:33.667Z,67.97
2019-03-21T22:46:40.372Z,68.12
2019-03-21T22:48:47.043Z,68.02
2019-03-21T22:50:53.716Z,68.12
2019-03-21T22:53:00.410Z,68.10
2019-03-21T22:55:08.645Z,68.22
2019-03-21T22:57:15.343Z,68.26
2019-03-21T22:59:22.039Z,68.29
2019-03-21T23:01:29.286Z,68.40
2019-03-21T23:03:36.077Z,68.32
2019-03-21T23:05:42.844Z,68.38
2019-03-21T23:07:49.517Z,68.45
2019-03-21T23:09:56.331Z,68.53
2019-03-21T23:12:03.062Z,68.56
2019-03-21T23:14:09.830Z,68.51
2019-03-21T23:16:16.582Z,68.80
2019-03-21T23:18:23.368Z,68.94
2019-03-21T23:20:31.047Z,68.91
2019-03-21T23:22:37.794Z,69.20
2019-03-21T23:24:44.501Z,69.29
2019-03-21T23:26:53.216Z,69.29
2019-03-21T23:28:59.550Z,69.42
2019-03-21T23:31:06.397Z,69.45
2019-03-21T23:33:13.082Z,69.49
2019-03-21T23:35:19.758Z,69.54
2019-03-21T23:37:26.647Z,69.63
2019-03-21T23:39:33.593Z,69.61
2019-03-21T23:41:40.339Z,69.72
2019-03-21T23:43:47.161Z,69.69
2019-03-21T23:45:53.844Z,69.76
2019-03-21T23:48:00.525Z,69.58
2019-03-21T23:50:13.375Z,69.81
2019-03-21T23:52:20.037Z,69.87
2019-03-21T23:54:26.708Z,69.92
2019-03-21T23:56:33.427Z,69.85
2019-03-21T23:58:40.231Z,69.90
